createdAt,value
2018-05-09T00:00:05.000Z,1.10
2018-05-09T00:02:32.469Z,1.07
2018-05-09T00:04:59.945Z,1.27
2018-05-09T00:07:28.164Z,1.47
2018-05-09T00:09:55.640Z,1.30
2018-05-09T00:12:23.119Z,1.47
2018-05-09T00:14:50.574Z,1.50
2018-05-09T00:17:18.836Z,1.13
2018-05-09T00:19:46.302Z,1.27
2018-05-09T00:22:13.774Z,1.20
2018-05-09T00:24:41.233Z,1.50
2018-05-09T00:27:09.459Z,1.40
2018-05-09T00:29:36.912Z,1.47
2018-05-09T00:32:04.406Z,1.10
2018-05-09T00:34:31.868Z,1.30
2018-05-09T00:36:59.332Z,1.60
2018-05-09T00:39:27.561Z,1.20
2018-05-09T00:41:55.049Z,1.37
2018-05-09T00:44:22.532Z,1.40
2018-05-09T00:46:50.791Z,1.70
2018-05-09T00:49:18.265Z,1.40
2018-05-09T00:51:46.537Z,1.60
2018-05-09T00:54:26.480Z,1.40
2018-05-09T00:56:53.968Z,1.50
2018-05-09T00:59:21.854Z,1.50
2018-05-09T01:01:49.342Z,1.80
2018-05-09T01:04:16.824Z,1.33
2018-05-09T01:06:45.056Z,1.40
2018-05-09T01:09:12.551Z,1.40
2018-05-09T01:11:40.003Z,1.60
2018-05-09T01:14:07.486Z,1.40
2018-05-09T01:16:35.736Z,1.40
2018-05-09T01:19:03.220Z,1.43
2018-05-09T01:21:31.494Z,1.50
2018-05-09T01:23:59.711Z,1.40
2018-05-09T01:26:27.168Z,1.50
2018-05-09T01:28:54.748Z,1.47
2018-05-09T01:31:22.956Z,1.60
2018-05-09T01:33:50.412Z,2.00
2018-05-09T01:36:18.638Z,1.37
2018-05-09T01:38:46.144Z,1.57
2018-05-09T01:41:14.377Z,1.83
2018-05-09T01:43:41.823Z,1.70
2018-05-09T01:46:09.316Z,1.70
2018-05-09T01:48:36.780Z,1.47
2018-05-09T01:51:04.224Z,1.67
2018-05-09T01:53:31.724Z,1.70
2018-05-09T01:55:59.188Z,1.80
2018-05-09T01:58:26.659Z,1.40
2018-05-09T02:00:54.119Z,1.57
2018-05-09T02:03:21.597Z,1.70
2018-05-09T02:05:49.057Z,1.60
2018-05-09T02:08:16.516Z,1.50
2018-05-09T02:10:44.000Z,1.60
2018-05-09T02:13:12.223Z,1.67
2018-05-09T02:15:39.711Z,1.80
2018-05-09T02:18:07.166Z,1.70
2018-05-09T02:20:34.648Z,1.60
2018-05-09T02:23:02.904Z,1.50
2018-05-09T02:25:30.361Z,1.67
2018-05-09T02:27:57.822Z,1.60
2018-05-09T02:30:25.313Z,1.70
2018-05-09T02:32:53.551Z,1.73
2018-05-09T02:35:21.004Z,1.70
2018-05-09T02:37:48.489Z,1.90
2018-05-09T02:40:16.734Z,1.93
2018-05-09T02:42:44.213Z,1.70
2018-05-09T02:45:11.711Z,1.77
2018-05-09T02:47:39.193Z,2.00
2018-05-09T02:50:06.667Z,1.50
2018-05-09T02:52:34.129Z,1.60
2018-05-09T02:55:01.607Z,1.70
2018-05-09T02:57:29.065Z,1.70
2018-05-09T02:59:56.543Z,1.83
2018-05-09T03:02:24.763Z,1.33
2018-05-09T03:04:52.238Z,1.63
2018-05-09T03:07:19.706Z,1.60
2018-05-09T03:09:47.189Z,2.33
2018-05-09T03:12:15.405Z,1.63
2018-05-09T03:14:42.869Z,1.87
2018-05-09T03:17:10.348Z,1.70
2018-05-09T03:19:37.835Z,1.63
2018-05-09T03:22:06.069Z,2.07
2018-05-09T03:24:33.532Z,1.80
2018-05-09T03:27:00.988Z,2.00
2018-05-09T03:29:28.628Z,1.70
2018-05-09T03:31:56.104Z,1.87
2018-05-09T03:34:23.547Z,2.10
2018-05-09T03:36:51.020Z,1.87
2018-05-09T03:39:18.466Z,2.00
2018-05-09T03:41:45.933Z,1.80
2018-05-09T03:44:13.447Z,1.60
2018-05-09T03:46:40.900Z,1.87
2018-05-09T03:49:08.385Z,1.57
2018-05-09T03:51:35.844Z,1.90
2018-05-09T03:54:03.303Z,1.70
2018-05-09T03:56:30.760Z,1.60
2018-05-09T03:58:58.216Z,1.70
2018-05-09T04:01:25.672Z,1.90
2018-05-09T04:04:05.146Z,1.60
2018-05-09T04:06:44.455Z,1.70
2018-05-09T04:09:23.684Z,1.83
2018-05-09T04:11:51.124Z,1.67
2018-05-09T04:14:19.461Z,1.97
2018-05-09T04:16:47.688Z,2.00
2018-05-09T04:19:15.151Z,1.80
2018-05-09T04:21:42.637Z,2.17
2018-05-09T04:24:10.116Z,1.90
2018-05-09T04:26:38.348Z,2.10
2018-05-09T04:29:05.864Z,2.23
2018-05-09T04:31:33.353Z,2.03
2018-05-09T04:34:00.837Z,1.77
2018-05-09T04:36:28.285Z,1.90
2018-05-09T04:38:55.810Z,1.97
2018-05-09T04:41:23.283Z,2.30
2018-05-09T04:43:50.725Z,1.83
2018-05-09T04:46:18.948Z,2.17
2018-05-09T04:48:46.395Z,2.10
2018-05-09T04:51:13.855Z,2.00
2018-05-09T04:53:41.341Z,1.70
2018-05-09T04:56:09.601Z,1.87
2018-05-09T04:58:37.053Z,1.93
2018-05-09T05:01:04.509Z,2.13
2018-05-09T05:03:32.002Z,2.00
2018-05-09T05:06:00.204Z,1.97
2018-05-09T05:08:27.689Z,2.00
2018-05-09T05:10:55.164Z,1.50
2018-05-09T05:13:22.648Z,1.60
2018-05-09T05:15:50.985Z,1.90
2018-05-09T05:18:18.338Z,2.00
2018-05-09T05:20:45.799Z,1.90
2018-05-09T05:23:13.257Z,2.03
2018-05-09T05:25:40.733Z,1.70
2018-05-09T05:28:08.976Z,2.00
2018-05-09T05:30:36.436Z,1.70
2018-05-09T05:33:03.883Z,1.80
2018-05-09T05:35:31.366Z,1.50
2018-05-09T05:37:58.822Z,1.73
2018-05-09T05:40:26.270Z,1.83
2018-05-09T05:42:53.747Z,1.60
2018-05-09T05:45:21.301Z,2.00
2018-05-09T05:47:48.693Z,1.80
2018-05-09T05:50:16.152Z,2.00
2018-05-09T05:52:43.618Z,1.90
2018-05-09T05:55:11.099Z,1.77
2018-05-09T05:57:38.567Z,2.00
2018-05-09T06:00:06.048Z,1.87
2018-05-09T06:02:33.500Z,1.97
2018-05-09T06:05:01.015Z,2.00
2018-05-09T06:07:28.516Z,1.80
2018-05-09T06:09:56.000Z,1.53
2018-05-09T06:12:24.218Z,1.63
2018-05-09T06:14:51.698Z,1.70
2018-05-09T06:17:19.265Z,2.07
2018-05-09T06:19:46.637Z,1.90
2018-05-09T06:22:14.885Z,1.90
2018-05-09T06:24:42.368Z,2.00
2018-05-09T06:27:10.612Z,2.00
2018-05-09T06:29:38.081Z,1.90
2018-05-09T06:32:05.544Z,1.93
2018-05-09T06:34:33.024Z,2.23
2018-05-09T06:37:01.241Z,2.10
2018-05-09T06:39:28.747Z,1.80
2018-05-09T06:41:56.216Z,2.07
2018-05-09T06:44:24.434Z,2.00
2018-05-09T06:46:51.895Z,1.83
2018-05-09T06:49:19.380Z,1.50
2018-05-09T06:51:46.827Z,2.10
2018-05-09T06:54:14.277Z,1.63
2018-05-09T06:56:41.745Z,2.10
2018-05-09T06:59:09.311Z,1.60
2018-05-09T07:01:37.473Z,1.60
2018-05-09T07:04:04.932Z,1.77
2018-05-09T07:06:32.559Z,1.57
2018-05-09T07:08:59.915Z,1.90
2018-05-09T07:11:27.381Z,1.93
2018-05-09T07:13:54.864Z,1.47
2018-05-09T07:16:22.328Z,1.60
2018-05-09T07:18:49.808Z,1.80
2018-05-09T07:21:18.047Z,1.87
2018-05-09T07:23:45.536Z,1.80
2018-05-09T07:26:13.053Z,2.10
2018-05-09T07:28:40.513Z,1.80
2018-05-09T07:31:07.986Z,1.90
2018-05-09T07:33:35.450Z,1.57
2018-05-09T07:36:02.908Z,1.70
2018-05-09T07:38:30.383Z,2.03
2018-05-09T07:40:58.649Z,1.70
2018-05-09T07:43:26.104Z,2.20
2018-05-09T07:45:53.596Z,1.70
2018-05-09T07:48:21.063Z,1.60
2018-05-09T07:50:48.544Z,1.80
2018-05-09T07:53:16.008Z,1.90
2018-05-09T07:55:43.452Z,2.00
2018-05-09T07:58:10.936Z,2.03
2018-05-09T08:00:38.389Z,1.90
2018-05-09T08:03:05.839Z,1.80
2018-05-09T08:05:33.315Z,2.00
2018-05-09T08:08:00.760Z,1.83
2018-05-09T08:10:28.215Z,2.20
2018-05-09T08:12:55.760Z,2.07
2018-05-09T08:15:23.129Z,1.60
2018-05-09T08:17:50.589Z,1.60
2018-05-09T08:20:18.068Z,1.97
2018-05-09T08:22:45.588Z,1.83
2018-05-09T08:25:13.067Z,2.10
2018-05-09T08:27:40.538Z,2.10
2018-05-09T08:30:08.008Z,2.00
2018-05-09T08:32:35.476Z,2.17
2018-05-09T08:35:03.774Z,2.00
2018-05-09T08:37:31.961Z,1.90
2018-05-09T08:39:59.409Z,1.80
2018-05-09T08:42:26.868Z,1.90
2018-05-09T08:44:54.337Z,2.37
2018-05-09T08:47:21.799Z,1.83
2018-05-09T08:49:49.249Z,2.00
2018-05-09T08:52:16.701Z,2.33
2018-05-09T08:54:44.159Z,1.90
2018-05-09T08:57:11.669Z,2.40
2018-05-09T08:59:39.140Z,1.97
2018-05-09T09:02:07.367Z,1.80
2018-05-09T09:04:34.852Z,1.73
2018-05-09T09:07:02.324Z,1.97
2018-05-09T09:09:29.801Z,2.20
2018-05-09T09:11:57.281Z,2.00
2018-05-09T09:14:24.743Z,2.30
2018-05-09T09:16:52.964Z,1.93
2018-05-09T09:19:20.467Z,2.13
2018-05-09T09:21:47.959Z,2.03
2018-05-09T09:24:15.439Z,1.60
2018-05-09T09:26:42.909Z,2.00
2018-05-09T09:29:11.202Z,1.77
2018-05-09T09:31:38.668Z,2.10
2018-05-09T09:34:06.145Z,2.10
2018-05-09T09:36:33.623Z,2.20
2018-05-09T09:39:01.100Z,2.00
2018-05-09T09:41:28.575Z,1.80
2018-05-09T09:43:56.017Z,2.30
2018-05-09T09:46:23.497Z,1.93
2018-05-09T09:48:51.731Z,2.03
2018-05-09T09:51:19.188Z,1.80
2018-05-09T09:53:46.640Z,1.77
2018-05-09T09:56:14.103Z,2.10
2018-05-09T09:58:41.596Z,2.20
2018-05-09T10:01:09.819Z,1.80
2018-05-09T10:03:37.263Z,2.17
2018-05-09T10:06:04.740Z,1.70
2018-05-09T10:08:32.206Z,1.43
2018-05-09T10:10:59.673Z,1.80
2018-05-09T10:13:27.152Z,1.90
2018-05-09T10:15:55.436Z,2.10
2018-05-09T10:18:22.829Z,2.10
2018-05-09T10:20:50.290Z,2.10
2018-05-09T10:23:17.818Z,2.03
2018-05-09T10:25:45.262Z,1.97
2018-05-09T10:28:13.484Z,1.83
2018-05-09T10:30:40.956Z,1.90
2018-05-09T10:33:08.427Z,1.87
2018-05-09T10:35:35.898Z,1.67
2018-05-09T10:38:03.373Z,2.07
2018-05-09T10:40:31.622Z,1.87
2018-05-09T10:42:59.108Z,1.60
2018-05-09T10:45:27.381Z,2.00
2018-05-09T10:47:55.592Z,2.20
2018-05-09T10:50:23.051Z,1.60
2018-05-09T10:52:50.532Z,1.90
2018-05-09T10:55:17.992Z,1.70
2018-05-09T10:57:45.472Z,1.90
2018-05-09T11:00:12.913Z,1.80
2018-05-09T11:02:40.396Z,1.63
2018-05-09T11:05:08.678Z,1.57
2018-05-09T11:07:36.111Z,1.20
2018-05-09T11:10:03.583Z,1.67
2018-05-09T11:12:31.808Z,1.40
2018-05-09T11:14:59.280Z,1.30
2018-05-09T11:17:26.967Z,1.50
2018-05-09T11:19:54.438Z,1.50
2018-05-09T11:22:22.652Z,1.50
2018-05-09T11:24:50.106Z,1.70
2018-05-09T11:27:17.557Z,1.80
2018-05-09T11:29:45.035Z,1.50
2018-05-09T11:32:12.512Z,1.70
2018-05-09T11:34:39.992Z,1.53
2018-05-09T11:37:07.436Z,1.50
2018-05-09T11:39:34.893Z,1.80
2018-05-09T11:42:02.357Z,1.70
2018-05-09T11:44:29.801Z,1.50
2018-05-09T11:46:57.257Z,1.60
2018-05-09T11:49:24.788Z,1.70
2018-05-09T11:51:52.252Z,1.50
2018-05-09T11:54:19.718Z,1.63
2018-05-09T11:56:47.178Z,1.47
2018-05-09T11:59:14.819Z,1.50
2018-05-09T12:01:42.324Z,1.43
2018-05-09T12:04:09.772Z,1.43
2018-05-09T12:06:37.253Z,1.67
2018-05-09T12:09:05.483Z,1.60
2018-05-09T12:11:32.948Z,1.70
2018-05-09T12:14:00.408Z,2.33
2018-05-09T12:16:27.880Z,1.53
2018-05-09T12:18:55.372Z,1.50
2018-05-09T12:21:22.808Z,1.70
2018-05-09T12:23:51.052Z,2.03
2018-05-09T12:26:18.508Z,1.77
2018-05-09T12:28:45.961Z,1.60
2018-05-09T12:31:13.412Z,1.70
2018-05-09T12:33:40.888Z,1.60
2018-05-09T12:36:08.357Z,1.90
2018-05-09T12:38:35.836Z,1.80
2018-05-09T12:41:04.062Z,1.77
2018-05-09T12:43:31.509Z,1.70
2018-05-09T12:45:58.995Z,2.03
2018-05-09T12:48:26.533Z,2.00
2018-05-09T12:50:53.893Z,1.70
2018-05-09T12:53:21.332Z,1.20
2018-05-09T12:55:48.785Z,1.80
2018-05-09T12:58:16.244Z,1.67
2018-05-09T13:00:43.714Z,1.60
2018-05-09T13:03:11.206Z,1.50
2018-05-09T13:05:38.654Z,1.93
2018-05-09T13:08:06.139Z,1.80
2018-05-09T13:10:34.419Z,1.40
2018-05-09T13:13:01.898Z,1.60
2018-05-09T13:15:29.385Z,1.83
2018-05-09T13:17:56.827Z,1.77
2018-05-09T13:20:24.301Z,1.80
2018-05-09T13:22:51.772Z,1.93
2018-05-09T13:25:19.224Z,1.80
2018-05-09T13:27:46.712Z,1.77
2018-05-09T13:30:14.933Z,1.67
2018-05-09T13:32:42.395Z,1.77
2018-05-09T13:35:09.864Z,1.77
2018-05-09T13:37:37.344Z,1.70
2018-05-09T13:40:04.883Z,1.73
2018-05-09T13:42:32.236Z,2.00
2018-05-09T13:44:59.713Z,1.70
2018-05-09T13:47:27.173Z,1.60
2018-05-09T13:49:54.648Z,1.90
2018-05-09T13:52:22.865Z,1.70
2018-05-09T13:54:50.345Z,1.60
2018-05-09T13:57:17.817Z,1.60
2018-05-09T13:59:45.309Z,1.87
2018-05-09T14:02:12.785Z,2.10
2018-05-09T14:04:40.233Z,1.77
2018-05-09T14:07:07.685Z,1.80
2018-05-09T14:09:35.177Z,2.10
2018-05-09T14:12:02.650Z,1.93
2018-05-09T14:14:30.124Z,1.80
2018-05-09T14:16:57.584Z,2.10
2018-05-09T14:19:25.065Z,2.03
2018-05-09T14:21:53.307Z,2.00
2018-05-09T14:24:20.782Z,1.73
2018-05-09T14:26:48.236Z,1.77
2018-05-09T14:29:16.623Z,1.60
2018-05-09T14:31:44.841Z,1.97
2018-05-09T14:34:12.352Z,2.10
2018-05-09T14:36:40.584Z,2.00
2018-05-09T14:39:08.022Z,1.67
2018-05-09T14:41:36.260Z,1.80
2018-05-09T14:44:04.492Z,1.60
2018-05-09T14:46:31.980Z,1.87
2018-05-09T14:48:59.452Z,1.60
2018-05-09T14:51:27.673Z,1.73
2018-05-09T14:53:55.174Z,1.63
2018-05-09T14:56:22.662Z,1.63
2018-05-09T14:58:50.112Z,1.70
2018-05-09T15:01:18.374Z,2.10
2018-05-09T15:03:46.592Z,1.80
2018-05-09T17:05:05.118Z,1.67
2018-05-09T17:07:32.596Z,1.73
2018-05-09T17:10:00.081Z,1.90
2018-05-09T17:12:27.513Z,3.27
2018-05-09T17:14:55.027Z,2.30
2018-05-09T17:17:23.272Z,2.23
2018-05-09T17:19:50.723Z,26.57
2018-05-09T17:22:29.895Z,8.47
2018-05-09T17:24:57.383Z,17.83
2018-05-09T17:27:24.831Z,7.23
2018-05-09T17:29:54.092Z,3.83
2018-05-09T17:32:21.532Z,2.17
2018-05-09T17:34:48.983Z,2.33
2018-05-09T17:37:16.423Z,1.90
2018-05-09T17:39:43.881Z,1.70
2018-05-09T17:42:11.335Z,2.03
2018-05-09T17:44:38.817Z,2.00
2018-05-09T17:47:06.297Z,1.67
2018-05-09T17:49:34.508Z,2.13
2018-05-09T17:52:01.963Z,1.87
2018-05-09T17:54:29.421Z,2.00
2018-05-09T17:56:56.916Z,2.00
2018-05-09T17:59:24.447Z,1.70
2018-05-09T18:01:51.908Z,2.10
2018-05-09T18:04:19.388Z,1.63
2018-05-09T18:06:46.825Z,2.00
2018-05-09T18:09:14.327Z,1.93
2018-05-09T18:11:41.764Z,2.00
2018-05-09T18:14:09.212Z,1.53
2018-05-09T18:16:36.689Z,1.73
2018-05-09T18:19:04.155Z,2.13
2018-05-09T18:21:31.596Z,2.13
2018-05-09T18:23:59.082Z,2.30
2018-05-09T18:26:27.332Z,2.07
2018-05-09T18:28:54.784Z,2.13
2018-05-09T18:31:22.240Z,1.77
2018-05-09T18:33:49.698Z,1.73
2018-05-09T18:36:17.136Z,2.20
2018-05-09T18:38:44.647Z,2.10
2018-05-09T18:41:12.862Z,2.07
2018-05-09T18:43:40.302Z,1.73
2018-05-09T18:46:07.770Z,1.83
2018-05-09T18:48:35.251Z,2.03
2018-05-09T18:51:02.699Z,1.80
2018-05-09T18:53:30.217Z,2.03
2018-05-09T18:55:57.746Z,1.90
2018-05-09T18:58:25.218Z,2.10
2018-05-09T19:00:52.676Z,2.63
2018-05-09T19:03:20.896Z,2.70
2018-05-09T19:05:48.360Z,2.10
2018-05-09T19:08:15.821Z,2.10
2018-05-09T19:10:43.280Z,2.17
2018-05-09T19:13:10.771Z,1.80
2018-05-09T19:15:38.309Z,2.17
2018-05-09T19:18:05.815Z,1.90
2018-05-09T19:20:33.268Z,2.10
2018-05-09T19:23:00.764Z,1.70
2018-05-09T19:25:28.212Z,1.93
2018-05-09T19:27:55.697Z,1.90
2018-05-09T19:30:23.176Z,1.77
2018-05-09T19:32:50.653Z,1.90
2018-05-09T19:35:18.884Z,1.63
2018-05-09T19:37:46.360Z,2.30
2018-05-09T19:40:13.814Z,2.17
2018-05-09T19:42:41.270Z,2.10
2018-05-09T19:45:08.715Z,1.90
2018-05-09T19:47:37.028Z,1.83
2018-05-09T19:50:05.244Z,1.73
2018-05-09T19:52:32.708Z,1.70
2018-05-09T19:55:00.170Z,1.80
2018-05-09T19:57:27.653Z,2.20
2018-05-09T19:59:55.121Z,2.03
2018-05-09T20:02:23.342Z,1.90
2018-05-09T20:04:50.783Z,2.07
2018-05-09T20:07:18.268Z,2.50
2018-05-09T20:09:45.737Z,2.00
2018-05-09T20:12:13.193Z,2.23
2018-05-09T20:14:40.676Z,2.47
2018-05-09T20:17:08.180Z,2.30
2018-05-09T20:19:35.648Z,2.63
2018-05-09T20:22:03.084Z,2.30
2018-05-09T20:24:30.548Z,2.47
2018-05-09T20:26:58.027Z,2.30
2018-05-09T20:29:26.734Z,2.40
2018-05-09T20:32:06.216Z,1.97
2018-05-09T20:34:34.500Z,2.60
2018-05-09T20:37:01.973Z,2.73
2018-05-09T20:39:29.473Z,2.67
2018-05-09T20:41:56.967Z,2.27
2018-05-09T20:44:25.205Z,2.13
2018-05-09T20:46:52.677Z,2.60
2018-05-09T20:49:20.141Z,2.00
2018-05-09T20:51:51.228Z,2.40
2018-05-09T20:54:18.734Z,2.40
2018-05-09T20:56:46.207Z,2.50
2018-05-09T20:59:14.545Z,2.67
2018-05-09T21:01:48.795Z,2.30
2018-05-09T21:04:16.273Z,2.30
2018-05-09T21:06:43.733Z,2.20
2018-05-09T21:09:11.305Z,2.33
2018-05-09T21:11:38.713Z,2.60
2018-05-09T21:14:06.217Z,1.73
2018-05-09T21:16:33.674Z,2.23
2018-05-09T21:19:01.140Z,2.27
2018-05-09T21:21:28.644Z,2.30
2018-05-09T21:23:56.104Z,2.30
2018-05-09T21:26:23.575Z,2.77
2018-05-09T21:28:51.832Z,2.20
2018-05-09T21:31:19.316Z,2.63
2018-05-09T21:33:47.546Z,2.33
2018-05-09T21:36:15.089Z,2.37
2018-05-09T21:38:42.581Z,2.50
2018-05-09T21:41:10.056Z,2.63
2018-05-09T21:43:38.301Z,2.80
2018-05-09T21:46:05.772Z,2.47
2018-05-09T21:48:33.261Z,2.30
2018-05-09T21:51:00.724Z,2.90
2018-05-09T21:53:28.225Z,2.80
2018-05-09T21:55:55.750Z,2.50
2018-05-09T21:58:23.213Z,2.43
2018-05-09T22:00:50.692Z,2.20
2018-05-09T22:03:18.176Z,2.43
2018-05-09T22:05:45.638Z,2.47
2018-05-09T22:08:13.111Z,2.10
2018-05-09T22:10:41.352Z,2.40
2018-05-09T22:13:08.812Z,2.77
2018-05-09T22:15:36.299Z,2.67
2018-05-09T22:18:04.581Z,2.60
2018-05-09T22:20:32.817Z,2.40
2018-05-09T22:23:00.277Z,2.70
2018-05-09T22:25:27.775Z,2.60
2018-05-09T22:27:56.083Z,2.90
2018-05-09T22:30:23.549Z,2.60
2018-05-09T22:32:51.024Z,2.33
2018-05-09T22:35:18.480Z,2.57
2018-05-09T22:37:45.965Z,2.43
2018-05-09T22:40:13.437Z,2.57
2018-05-09T22:42:41.650Z,2.43
2018-05-09T22:45:09.163Z,2.70
2018-05-09T22:47:36.633Z,2.80
2018-05-09T22:50:04.880Z,2.70
2018-05-09T22:52:32.348Z,2.43
2018-05-09T22:54:59.887Z,2.50
2018-05-09T22:57:28.060Z,3.30
2018-05-09T22:59:55.533Z,3.77
2018-05-09T23:02:22.990Z,4.47
2018-05-09T23:04:50.440Z,5.33
2018-05-09T23:07:17.911Z,7.17
2018-05-09T23:09:45.532Z,7.47
2018-05-09T23:12:13.010Z,7.17
2018-05-09T23:14:40.478Z,7.10
2018-05-09T23:17:08.046Z,5.97
2018-05-09T23:19:36.220Z,7.70
2018-05-09T23:22:03.683Z,7.73
2018-05-09T23:24:31.904Z,8.37
2018-05-09T23:26:59.361Z,8.80
2018-05-09T23:29:27.349Z,8.40
2018-05-09T23:31:55.667Z,8.83
2018-05-09T23:34:23.888Z,7.93
2018-05-09T23:36:51.376Z,10.53
2018-05-09T23:39:18.888Z,9.67
2018-05-09T23:41:46.353Z,8.47
2018-05-09T23:44:13.808Z,9.90
2018-05-09T23:46:41.265Z,10.47
2018-05-09T23:49:08.784Z,10.67
2018-05-09T23:51:37.040Z,10.87
2018-05-09T23:54:04.501Z,11.00
2018-05-09T23:56:32.104Z,10.53
2018-05-09T23:58:59.553Z,9.87
